sensor_id;sensor_type;location;lat;lon;timestamp;P1;durP1;ratioP1;P2;durP2;ratioP2
19482;SDS011;9882;51.166;6.992;2022-09-21T04:00:54;10.98;;;3.33;;
19482;SDS011;9882;51.166;6.992;2022-09-21T04:03:29;9.93;;;3.95;;
19482;SDS011;9882;51.166;6.992;2022-09-21T04:05:58;13.18;;;3.95;;
19482;SDS011;9882;51.166;6.992;2022-09-21T04:08:27;10.73;;;4.07;;
19482;SDS011;9882;51.166;6.992;2022-09-21T04:10:58;18.88;;;3.88;;
19482;SDS011;9882;51.166;6.992;2022-09-21T04:13:28;9.68;;;3.40;;
19482;SDS011;9882;51.166;6.992;2022-09-21T04:15:58;5.10;;;3.13;;
19482;SDS011;9882;51.166;6.992;2022-09-21T04:18:27;8.93;;;3.97;;
19482;SDS011;9882;51.166;6.992;2022-09-21T04:20:55;5.05;;;3.20;;
19482;SDS011;9882;51.166;6.992;2022-09-21T04:23:24;9.38;;;3.47;;
19482;SDS011;9882;51.166;6.992;2022-09-21T04:25:53;7.47;;;3.67;;
19482;SDS011;9882;51.166;6.992;2022-09-21T04:28:23;6.22;;;3.25;;
19482;SDS011;9882;51.166;6.992;2022-09-21T04:30:51;8.63;;;3.50;;
19482;SDS011;9882;51.166;6.992;2022-09-21T04:33:22;9.80;;;3.70;;
19482;SDS011;9882;51.166;6.992;2022-09-21T04:35:53;8.50;;;3.47;;
19482;SDS011;9882;51.166;6.992;2022-09-21T04:38:22;10.13;;;4.13;;
19482;SDS011;9882;51.166;6.992;2022-09-21T04:40:54;6.00;;;3.47;;
19482;SDS011;9882;51.166;6.992;2022-09-21T04:43:23;11.75;;;4.55;;
19482;SDS011;9882;51.166;6.992;2022-09-21T04:45:52;10.45;;;4.03;;
19482;SDS011;9882;51.166;6.992;2022-09-21T04:48:23;10.02;;;4.05;;
19482;SDS011;9882;51.166;6.992;2022-09-21T04:50:54;9.32;;;3.95;;
19482;SDS011;9882;51.166;6.992;2022-09-21T04:53:22;8.63;;;3.80;;
19482;SDS011;9882;51.166;6.992;2022-09-21T04:55:51;9.27;;;4.07;;
19482;SDS011;9882;51.166;6.992;2022-09-21T04:58:24;10.00;;;4.05;;
19482;SDS011;9882;51.166;6.992;2022-09-21T05:00:54;10.32;;;4.07;;
19482;SDS011;9882;51.166;6.992;2022-09-21T05:03:24;20.15;;;4.50;;
19482;SDS011;9882;51.166;6.992;2022-09-21T05:05:54;7.10;;;3.70;;
19482;SDS011;9882;51.166;6.992;2022-09-21T05:08:24;8.13;;;3.90;;
19482;SDS011;9882;51.166;6.992;2022-09-21T05:11:09;7.07;;;3.70;;
19482;SDS011;9882;51.166;6.992;2022-09-21T05:13:39;13.48;;;4.38;;
19482;SDS011;9882;51.166;6.992;2022-09-21T05:16:09;9.57;;;3.75;;
19482;SDS011;9882;51.166;6.992;2022-09-21T05:18:42;13.48;;;4.30;;
19482;SDS011;9882;51.166;6.992;2022-09-21T05:21:12;11.13;;;4.45;;
19482;SDS011;9882;51.166;6.992;2022-09-21T05:23:43;10.45;;;4.30;;
19482;SDS011;9882;51.166;6.992;2022-09-21T05:26:15;13.95;;;3.83;;
19482;SDS011;9882;51.166;6.992;2022-09-21T05:28:46;13.77;;;4.32;;
19482;SDS011;9882;51.166;6.992;2022-09-21T05:31:22;9.52;;;3.60;;
19482;SDS011;9882;51.166;6.992;2022-09-21T05:34:04;8.77;;;3.72;;
19482;SDS011;9882;51.166;6.992;2022-09-21T05:39:28;7.75;;;3.92;;
19482;SDS011;9882;51.166;6.992;2022-09-21T05:41:57;8.63;;;4.22;;
19482;SDS011;9882;51.166;6.992;2022-09-21T05:44:26;5.85;;;3.50;;
19482;SDS011;9882;51.166;6.992;2022-09-21T05:46:57;7.32;;;3.78;;
19482;SDS011;9882;51.166;6.992;2022-09-21T05:49:37;15.45;;;4.47;;
19482;SDS011;9882;51.166;6.992;2022-09-21T05:52:15;9.10;;;3.95;;
19482;SDS011;9882;51.166;6.992;2022-09-21T05:54:55;9.82;;;3.95;;
19482;SDS011;9882;51.166;6.992;2022-09-21T05:57:33;8.20;;;4.30;;
19482;SDS011;9882;51.166;6.992;2022-09-21T06:00:12;9.27;;;3.15;;
19482;SDS011;9882;51.166;6.992;2022-09-21T06:02:49;8.60;;;3.75;;
19482;SDS011;9882;51.166;6.992;2022-09-21T06:05:30;10.68;;;4.55;;
19482;SDS011;9882;51.166;6.992;2022-09-21T06:07:58;9.77;;;4.05;;
19482;SDS011;9882;51.166;6.992;2022-09-21T06:10:27;12.75;;;4.68;;
19482;SDS011;9882;51.166;6.992;2022-09-21T06:13:00;7.43;;;4.18;;
19482;SDS011;9882;51.166;6.992;2022-09-21T06:15:28;11.95;;;4.32;;
19482;SDS011;9882;51.166;6.992;2022-09-21T06:17:57;14.00;;;4.30;;
19482;SDS011;9882;51.166;6.992;2022-09-21T06:20:25;10.88;;;4.38;;
19482;SDS011;9882;51.166;6.992;2022-09-21T06:23:00;12.55;;;4.53;;
19482;SDS011;9882;51.166;6.992;2022-09-21T06:25:28;10.15;;;4.22;;
19482;SDS011;9882;51.166;6.992;2022-09-21T06:28:00;11.45;;;4.03;;
19482;SDS011;9882;51.166;6.992;2022-09-21T06:30:30;17.60;;;4.93;;
19482;SDS011;9882;51.166;6.992;2022-09-21T06:33:00;9.75;;;4.47;;
19482;SDS011;9882;51.166;6.992;2022-09-21T06:35:31;10.80;;;4.63;;
19482;SDS011;9882;51.166;6.992;2022-09-21T06:38:03;11.20;;;4.57;;
19482;SDS011;9882;51.166;6.992;2022-09-21T06:40:33;9.43;;;4.38;;
19482;SDS011;9882;51.166;6.992;2022-09-21T06:43:04;12.60;;;4.05;;
19482;SDS011;9882;51.166;6.992;2022-09-21T06:45:32;11.20;;;4.10;;
19482;SDS011;9882;51.166;6.992;2022-09-21T06:48:01;12.60;;;4.93;;
19482;SDS011;9882;51.166;6.992;2022-09-21T06:50:29;11.23;;;4.90;;
19482;SDS011;9882;51.166;6.992;2022-09-21T06:52:58;16.27;;;6.18;;
19482;SDS011;9882;51.166;6.992;2022-09-21T06:55:29;18.40;;;5.80;;
19482;SDS011;9882;51.166;6.992;2022-09-21T06:57:58;16.15;;;6.65;;
19482;SDS011;9882;51.166;6.992;2022-09-21T07:00:28;16.75;;;4.93;;
19482;SDS011;9882;51.166;6.992;2022-09-21T07:02:57;23.70;;;8.43;;
19482;SDS011;9882;51.166;6.992;2022-09-21T07:05:25;21.42;;;8.45;;
19482;SDS011;9882;51.166;6.992;2022-09-21T07:07:55;20.23;;;7.53;;
19482;SDS011;9882;51.166;6.992;2022-09-21T07:13:21;21.85;;;8.65;;
19482;SDS011;9882;51.166;6.992;2022-09-21T07:15:50;21.50;;;8.48;;
19482;SDS011;9882;51.166;6.992;2022-09-21T07:18:19;20.40;;;7.07;;
19482;SDS011;9882;51.166;6.992;2022-09-21T07:20:49;19.15;;;7.07;;
19482;SDS011;9882;51.166;6.992;2022-09-21T07:23:18;16.73;;;6.10;;
19482;SDS011;9882;51.166;6.992;2022-09-21T07:25:48;19.02;;;7.65;;
19482;SDS011;9882;51.166;6.992;2022-09-21T07:28:18;15.00;;;6.38;;
19482;SDS011;9882;51.166;6.992;2022-09-21T07:30:49;15.30;;;7.05;;
19482;SDS011;9882;51.166;6.992;2022-09-21T07:33:17;17.80;;;6.75;;
19482;SDS011;9882;51.166;6.992;2022-09-21T07:35:49;18.33;;;7.32;;
19482;SDS011;9882;51.166;6.992;2022-09-21T07:38:18;13.18;;;5.63;;
19482;SDS011;9882;51.166;6.992;2022-09-21T07:40:47;19.70;;;7.60;;
19482;SDS011;9882;51.166;6.992;2022-09-21T07:43:16;16.60;;;6.93;;
19482;SDS011;9882;51.166;6.992;2022-09-21T07:45:52;15.02;;;5.82;;
19482;SDS011;9882;51.166;6.992;2022-09-21T07:48:21;18.63;;;6.80;;
19482;SDS011;9882;51.166;6.992;2022-09-21T07:50:50;25.27;;;7.50;;
19482;SDS011;9882;51.166;6.992;2022-09-21T07:53:18;19.65;;;6.88;;
19482;SDS011;9882;51.166;6.992;2022-09-21T07:55:47;20.55;;;7.05;;
19482;SDS011;9882;51.166;6.992;2022-09-21T07:58:16;19.65;;;7.72;;
19482;SDS011;9882;51.166;6.992;2022-09-21T08:01:04;19.60;;;7.22;;
19482;SDS011;9882;51.166;6.992;2022-09-21T08:03:33;21.67;;;7.57;;
19482;SDS011;9882;51.166;6.992;2022-09-21T08:06:02;17.40;;;7.30;;
19482;SDS011;9882;51.166;6.992;2022-09-21T08:08:31;20.65;;;6.97;;
19482;SDS011;9882;51.166;6.992;2022-09-21T08:11:01;19.08;;;6.78;;
19482;SDS011;9882;51.166;6.992;2022-09-21T08:13:30;19.10;;;6.32;;
19482;SDS011;9882;51.166;6.992;2022-09-21T08:16:02;27.00;;;6.47;;
19482;SDS011;9882;51.166;6.992;2022-09-21T08:18:35;16.70;;;6.00;;
19482;SDS011;9882;51.166;6.992;2022-09-21T08:21:04;16.38;;;5.90;;
19482;SDS011;9882;51.166;6.992;2022-09-21T08:23:33;20.20;;;6.30;;
19482;SDS011;9882;51.166;6.992;2022-09-21T08:26:06;19.88;;;6.40;;
19482;SDS011;9882;51.166;6.992;2022-09-21T08:28:36;23.08;;;6.45;;
19482;SDS011;9882;51.166;6.992;2022-09-21T08:31:06;13.85;;;5.85;;
19482;SDS011;9882;51.166;6.992;2022-09-21T08:33:38;13.98;;;6.22;;
19482;SDS011;9882;51.166;6.992;2022-09-21T08:36:07;13.07;;;5.90;;
19482;SDS011;9882;51.166;6.992;2022-09-21T08:38:36;14.77;;;5.38;;
19482;SDS011;9882;51.166;6.992;2022-09-21T08:41:13;18.40;;;6.20;;
19482;SDS011;9882;51.166;6.992;2022-09-21T08:43:44;17.17;;;6.30;;
19482;SDS011;9882;51.166;6.992;2022-09-21T08:46:16;12.95;;;5.20;;
19482;SDS011;9882;51.166;6.992;2022-09-21T08:48:49;13.07;;;5.45;;
19482;SDS011;9882;51.166;6.992;2022-09-21T08:51:24;17.08;;;5.43;;
19482;SDS011;9882;51.166;6.992;2022-09-21T08:53:57;10.95;;;5.03;;
19482;SDS011;9882;51.166;6.992;2022-09-21T08:56:30;13.57;;;4.53;;
19482;SDS011;9882;51.166;6.992;2022-09-21T08:59:13;12.77;;;4.82;;
19482;SDS011;9882;51.166;6.992;2022-09-21T09:01:46;13.02;;;5.10;;
19482;SDS011;9882;51.166;6.992;2022-09-21T09:04:32;12.52;;;5.00;;
19482;SDS011;9882;51.166;6.992;2022-09-21T09:07:25;10.55;;;4.30;;
19482;SDS011;9882;51.166;6.992;2022-09-21T09:10:15;12.77;;;4.50;;
19482;SDS011;9882;51.166;6.992;2022-09-21T09:12:56;15.00;;;4.57;;
19482;SDS011;9882;51.166;6.992;2022-09-21T09:15:45;11.15;;;4.28;;
19482;SDS011;9882;51.166;6.992;2022-09-21T09:18:22;9.07;;;3.75;;
19482;SDS011;9882;51.166;6.992;2022-09-21T09:20:59;10.75;;;4.10;;
19482;SDS011;9882;51.166;6.992;2022-09-21T09:23:33;7.30;;;3.50;;
19482;SDS011;9882;51.166;6.992;2022-09-21T09:26:05;14.30;;;4.40;;
19482;SDS011;9882;51.166;6.992;2022-09-21T09:28:40;15.70;;;4.68;;
19482;SDS011;9882;51.166;6.992;2022-09-21T09:31:15;12.18;;;4.13;;
19482;SDS011;9882;51.166;6.992;2022-09-21T09:33:47;6.63;;;3.42;;
19482;SDS011;9882;51.166;6.992;2022-09-21T09:36:24;11.18;;;3.92;;
19482;SDS011;9882;51.166;6.992;2022-09-21T09:39:13;8.35;;;3.35;;
19482;SDS011;9882;51.166;6.992;2022-09-21T09:41:49;8.40;;;3.28;;
19482;SDS011;9882;51.166;6.992;2022-09-21T09:44:46;8.95;;;3.88;;
19482;SDS011;9882;51.166;6.992;2022-09-21T09:47:30;10.60;;;3.10;;
19482;SDS011;9882;51.166;6.992;2022-09-21T09:50:08;12.60;;;3.83;;
19482;SDS011;9882;51.166;6.992;2022-09-21T09:52:41;9.13;;;3.83;;
19482;SDS011;9882;51.166;6.992;2022-09-21T09:55:14;6.55;;;3.22;;
19482;SDS011;9882;51.166;6.992;2022-09-21T09:57:48;8.40;;;3.55;;
19482;SDS011;9882;51.166;6.992;2022-09-21T10:00:17;9.35;;;3.63;;
19482;SDS011;9882;51.166;6.992;2022-09-21T10:02:48;11.15;;;3.35;;
19482;SDS011;9882;51.166;6.992;2022-09-21T10:05:18;14.40;;;3.50;;
19482;SDS011;9882;51.166;6.992;2022-09-21T10:07:51;7.63;;;3.33;;
19482;SDS011;9882;51.166;6.992;2022-09-21T10:10:28;9.75;;;3.20;;
19482;SDS011;9882;51.166;6.992;2022-09-21T10:13:10;10.27;;;3.08;;
19482;SDS011;9882;51.166;6.992;2022-09-21T10:15:41;16.67;;;3.22;;
19482;SDS011;9882;51.166;6.992;2022-09-21T10:18:19;11.77;;;3.28;;
19482;SDS011;9882;51.166;6.992;2022-09-21T10:20:52;10.13;;;3.67;;
19482;SDS011;9882;51.166;6.992;2022-09-21T10:23:24;9.23;;;3.05;;
19482;SDS011;9882;51.166;6.992;2022-09-21T10:25:56;13.70;;;3.10;;
19482;SDS011;9882;51.166;6.992;2022-09-21T10:28:28;7.85;;;3.10;;
19482;SDS011;9882;51.166;6.992;2022-09-21T10:31:06;6.22;;;2.92;;
19482;SDS011;9882;51.166;6.992;2022-09-21T10:33:47;5.40;;;2.42;;
19482;SDS011;9882;51.166;6.992;2022-09-21T10:36:23;9.80;;;2.88;;
19482;SDS011;9882;51.166;6.992;2022-09-21T10:39:10;8.88;;;3.20;;
19482;SDS011;9882;51.166;6.992;2022-09-21T10:41:50;7.20;;;2.97;;
19482;SDS011;9882;51.166;6.992;2022-09-21T10:44:24;11.00;;;2.83;;
19482;SDS011;9882;51.166;6.992;2022-09-21T10:46:55;4.43;;;2.53;;
19482;SDS011;9882;51.166;6.992;2022-09-21T10:49:26;8.15;;;2.70;;
19482;SDS011;9882;51.166;6.992;2022-09-21T10:51:56;6.00;;;2.38;;
19482;SDS011;9882;51.166;6.992;2022-09-21T10:54:28;7.78;;;2.60;;
19482;SDS011;9882;51.166;6.992;2022-09-21T10:56:59;3.60;;;2.17;;
19482;SDS011;9882;51.166;6.992;2022-09-21T10:59:30;4.53;;;2.60;;
19482;SDS011;9882;51.166;6.992;2022-09-21T11:02:00;6.82;;;2.60;;
19482;SDS011;9882;51.166;6.992;2022-09-21T11:04:50;6.53;;;2.78;;
19482;SDS011;9882;51.166;6.992;2022-09-21T11:07:27;7.15;;;2.72;;
19482;SDS011;9882;51.166;6.992;2022-09-21T11:10:02;3.00;;;2.42;;
19482;SDS011;9882;51.166;6.992;2022-09-21T11:12:40;8.65;;;2.75;;
19482;SDS011;9882;51.166;6.992;2022-09-21T11:15:40;4.13;;;2.42;;
19482;SDS011;9882;51.166;6.992;2022-09-21T11:18:15;10.35;;;2.72;;
19482;SDS011;9882;51.166;6.992;2022-09-21T11:20:52;10.52;;;2.50;;
19482;SDS011;9882;51.166;6.992;2022-09-21T11:23:38;8.98;;;2.75;;
19482;SDS011;9882;51.166;6.992;2022-09-21T11:26:16;7.28;;;2.40;;
19482;SDS011;9882;51.166;6.992;2022-09-21T11:28:52;10.90;;;2.83;;
19482;SDS011;9882;51.166;6.992;2022-09-21T11:31:32;6.95;;;2.70;;
19482;SDS011;9882;51.166;6.992;2022-09-21T11:37:23;6.03;;;2.42;;
19482;SDS011;9882;51.166;6.992;2022-09-21T11:40:08;8.25;;;2.42;;
19482;SDS011;9882;51.166;6.992;2022-09-21T11:42:50;7.65;;;2.75;;
19482;SDS011;9882;51.166;6.992;2022-09-21T11:45:36;6.15;;;2.15;;
19482;SDS011;9882;51.166;6.992;2022-09-21T11:48:21;7.70;;;2.70;;
19482;SDS011;9882;51.166;6.992;2022-09-21T11:51:05;5.43;;;2.30;;
19482;SDS011;9882;51.166;6.992;2022-09-21T11:53:50;4.65;;;2.10;;
19482;SDS011;9882;51.166;6.992;2022-09-21T11:56:46;3.53;;;2.17;;
19482;SDS011;9882;51.166;6.992;2022-09-21T11:59:27;11.32;;;2.78;;
19482;SDS011;9882;51.166;6.992;2022-09-21T12:02:15;8.48;;;3.08;;
19482;SDS011;9882;51.166;6.992;2022-09-21T12:04:54;4.18;;;2.50;;
19482;SDS011;9882;51.166;6.992;2022-09-21T12:07:31;6.75;;;2.40;;
19482;SDS011;9882;51.166;6.992;2022-09-21T12:10:23;6.72;;;2.00;;
19482;SDS011;9882;51.166;6.992;2022-09-21T12:13:05;5.65;;;2.33;;
19482;SDS011;9882;51.166;6.992;2022-09-21T12:15:48;5.82;;;2.30;;
19482;SDS011;9882;51.166;6.992;2022-09-21T12:18:23;3.72;;;2.33;;
19482;SDS011;9882;51.166;6.992;2022-09-21T12:20:59;6.57;;;2.38;;
19482;SDS011;9882;51.166;6.992;2022-09-21T12:23:37;5.30;;;2.28;;
19482;SDS011;9882;51.166;6.992;2022-09-21T12:26:09;9.48;;;2.30;;
19482;SDS011;9882;51.166;6.992;2022-09-21T12:28:45;3.75;;;2.20;;
19482;SDS011;9882;51.166;6.992;2022-09-21T12:31:18;2.47;;;1.83;;
19482;SDS011;9882;51.166;6.992;2022-09-21T12:33:52;4.50;;;2.22;;
19482;SDS011;9882;51.166;6.992;2022-09-21T12:36:26;18.23;;;2.53;;
19482;SDS011;9882;51.166;6.992;2022-09-21T12:38:58;9.38;;;2.25;;
19482;SDS011;9882;51.166;6.992;2022-09-21T12:41:34;6.68;;;2.60;;
19482;SDS011;9882;51.166;6.992;2022-09-21T12:44:11;10.90;;;2.05;;
19482;SDS011;9882;51.166;6.992;2022-09-21T12:46:48;7.57;;;2.10;;
19482;SDS011;9882;51.166;6.992;2022-09-21T12:49:23;5.45;;;2.20;;
19482;SDS011;9882;51.166;6.992;2022-09-21T12:51:55;4.05;;;2.05;;
19482;SDS011;9882;51.166;6.992;2022-09-21T12:54:31;4.05;;;2.38;;
19482;SDS011;9882;51.166;6.992;2022-09-21T12:57:09;3.80;;;2.00;;
19482;SDS011;9882;51.166;6.992;2022-09-21T12:59:57;6.22;;;2.42;;
19482;SDS011;9882;51.166;6.992;2022-09-21T13:02:32;4.35;;;2.08;;
19482;SDS011;9882;51.166;6.992;2022-09-21T13:05:06;7.65;;;2.00;;
19482;SDS011;9882;51.166;6.992;2022-09-21T13:07:49;12.43;;;2.20;;
19482;SDS011;9882;51.166;6.992;2022-09-21T13:10:35;4.88;;;2.28;;
19482;SDS011;9882;51.166;6.992;2022-09-21T13:13:15;7.70;;;2.10;;
19482;SDS011;9882;51.166;6.992;2022-09-21T13:15:49;9.07;;;2.35;;
19482;SDS011;9882;51.166;6.992;2022-09-21T13:18:22;3.85;;;1.80;;
19482;SDS011;9882;51.166;6.992;2022-09-21T13:20:54;3.50;;;2.08;;
19482;SDS011;9882;51.166;6.992;2022-09-21T13:23:25;4.30;;;2.17;;
19482;SDS011;9882;51.166;6.992;2022-09-21T13:26:00;4.78;;;2.40;;
19482;SDS011;9882;51.166;6.992;2022-09-21T13:31:54;3.97;;;1.98;;
19482;SDS011;9882;51.166;6.992;2022-09-21T13:34:27;2.25;;;1.70;;
19482;SDS011;9882;51.166;6.992;2022-09-21T13:43:21;7.68;;;2.00;;
19482;SDS011;9882;51.166;6.992;2022-09-21T13:45:52;3.42;;;1.88;;
19482;SDS011;9882;51.166;6.992;2022-09-21T13:48:24;4.25;;;2.25;;
19482;SDS011;9882;51.166;6.992;2022-09-21T13:50:58;3.05;;;1.95;;
19482;SDS011;9882;51.166;6.992;2022-09-21T13:53:33;5.63;;;2.10;;
19482;SDS011;9882;51.166;6.992;2022-09-21T13:56:07;4.65;;;2.08;;
19482;SDS011;9882;51.166;6.992;2022-09-21T13:58:43;3.58;;;1.95;;
19482;SDS011;9882;51.166;6.992;2022-09-21T14:01:14;8.95;;;1.70;;
19482;SDS011;9882;51.166;6.992;2022-09-21T14:04:02;3.95;;;1.83;;
19482;SDS011;9882;51.166;6.992;2022-09-21T14:06:46;4.50;;;2.10;;
19482;SDS011;9882;51.166;6.992;2022-09-21T14:09:19;3.15;;;1.90;;
19482;SDS011;9882;51.166;6.992;2022-09-21T14:11:52;2.95;;;1.63;;
19482;SDS011;9882;51.166;6.992;2022-09-21T14:14:26;2.22;;;1.95;;
19482;SDS011;9882;51.166;6.992;2022-09-21T14:16:58;5.80;;;1.92;;
19482;SDS011;9882;51.166;6.992;2022-09-21T14:22:35;7.47;;;1.80;;
19482;SDS011;9882;51.166;6.992;2022-09-21T14:25:19;5.20;;;1.58;;
19482;SDS011;9882;51.166;6.992;2022-09-21T14:27:58;4.72;;;1.58;;
19482;SDS011;9882;51.166;6.992;2022-09-21T14:30:31;4.40;;;1.77;;
19482;SDS011;9882;51.166;6.992;2022-09-21T14:33:05;12.65;;;1.92;;
19482;SDS011;9882;51.166;6.992;2022-09-21T14:35:47;1.65;;;1.38;;
19482;SDS011;9882;51.166;6.992;2022-09-21T14:38:21;4.90;;;1.38;;
19482;SDS011;9882;51.166;6.992;2022-09-21T14:40:54;5.25;;;1.40;;
19482;SDS011;9882;51.166;6.992;2022-09-21T14:43:26;4.65;;;1.52;;
19482;SDS011;9882;51.166;6.992;2022-09-21T14:49:05;3.58;;;1.75;;
19482;SDS011;9882;51.166;6.992;2022-09-21T14:51:46;8.20;;;1.90;;
19482;SDS011;9882;51.166;6.992;2022-09-21T14:54:36;3.47;;;1.90;;
19482;SDS011;9882;51.166;6.992;2022-09-21T14:57:25;1.80;;;1.52;;
19482;SDS011;9882;51.166;6.992;2022-09-21T15:00:13;4.53;;;1.85;;
19482;SDS011;9882;51.166;6.992;2022-09-21T15:02:48;3.30;;;1.92;;
19482;SDS011;9882;51.166;6.992;2022-09-21T15:05:33;6.20;;;2.00;;
19482;SDS011;9882;51.166;6.992;2022-09-21T15:08:20;1.95;;;1.52;;
19482;SDS011;9882;51.166;6.992;2022-09-21T15:11:21;7.55;;;2.10;;
19482;SDS011;9882;51.166;6.992;2022-09-21T15:14:07;6.10;;;1.80;;
19482;SDS011;9882;51.166;6.992;2022-09-21T15:16:43;5.70;;;2.22;;
19482;SDS011;9882;51.166;6.992;2022-09-21T15:19:20;4.68;;;1.65;;
19482;SDS011;9882;51.166;6.992;2022-09-21T15:21:51;7.25;;;1.80;;
19482;SDS011;9882;51.166;6.992;2022-09-21T15:24:23;6.95;;;2.00;;
19482;SDS011;9882;51.166;6.992;2022-09-21T15:26:59;1.98;;;1.80;;
19482;SDS011;9882;51.166;6.992;2022-09-21T15:29:32;6.65;;;1.75;;
19482;SDS011;9882;51.166;6.992;2022-09-21T15:32:01;3.45;;;1.70;;
19482;SDS011;9882;51.166;6.992;2022-09-21T15:34:32;5.35;;;1.63;;
19482;SDS011;9882;51.166;6.992;2022-09-21T15:37:04;4.32;;;1.70;;
19482;SDS011;9882;51.166;6.992;2022-09-21T15:39:34;6.80;;;1.88;;
19482;SDS011;9882;51.166;6.992;2022-09-21T15:42:13;3.75;;;1.75;;
19482;SDS011;9882;51.166;6.992;2022-09-21T15:44:48;2.50;;;1.60;;
19482;SDS011;9882;51.166;6.992;2022-09-21T15:47:21;2.92;;;1.50;;
19482;SDS011;9882;51.166;6.992;2022-09-21T15:49:53;7.35;;;1.75;;
19482;SDS011;9882;51.166;6.992;2022-09-21T15:52:25;4.00;;;1.58;;
19482;SDS011;9882;51.166;6.992;2022-09-21T15:54:57;4.32;;;1.50;;
19482;SDS011;9882;51.166;6.992;2022-09-21T15:57:38;2.00;;;1.45;;
19482;SDS011;9882;51.166;6.992;2022-09-21T16:00:19;5.55;;;1.65;;
19482;SDS011;9882;51.166;6.992;2022-09-21T16:02:58;4.40;;;1.80;;
19482;SDS011;9882;51.166;6.992;2022-09-21T16:05:32;2.25;;;1.52;;
19482;SDS011;9882;51.166;6.992;2022-09-21T16:08:20;3.17;;;1.63;;
19482;SDS011;9882;51.166;6.992;2022-09-21T16:13:46;3.40;;;2.08;;
19482;SDS011;9882;51.166;6.992;2022-09-21T16:16:34;2.17;;;1.35;;
19482;SDS011;9882;51.166;6.992;2022-09-21T16:19:38;5.35;;;2.00;;
19482;SDS011;9882;51.166;6.992;2022-09-21T16:22:10;5.18;;;2.20;;
19482;SDS011;9882;51.166;6.992;2022-09-21T16:24:43;4.47;;;1.80;;
19482;SDS011;9882;51.166;6.992;2022-09-21T16:27:14;2.83;;;1.88;;
19482;SDS011;9882;51.166;6.992;2022-09-21T16:33:41;2.72;;;1.67;;
19482;SDS011;9882;51.166;6.992;2022-09-21T16:36:38;4.72;;;1.30;;
19482;SDS011;9882;51.166;6.992;2022-09-21T16:39:09;4.13;;;1.90;;
19482;SDS011;9882;51.166;6.992;2022-09-21T16:41:42;6.47;;;2.03;;
19482;SDS011;9882;51.166;6.992;2022-09-21T16:44:14;3.75;;;1.70;;
19482;SDS011;9882;51.166;6.992;2022-09-21T16:46:47;7.05;;;1.95;;
19482;SDS011;9882;51.166;6.992;2022-09-21T16:49:19;3.88;;;1.95;;
19482;SDS011;9882;51.166;6.992;2022-09-21T16:51:50;5.43;;;1.90;;
19482;SDS011;9882;51.166;6.992;2022-09-21T16:54:21;2.40;;;1.77;;
19482;SDS011;9882;51.166;6.992;2022-09-21T16:56:53;7.22;;;1.90;;
19482;SDS011;9882;51.166;6.992;2022-09-21T16:59:23;9.50;;;1.80;;
19482;SDS011;9882;51.166;6.992;2022-09-21T17:01:54;6.78;;;1.73;;
19482;SDS011;9882;51.166;6.992;2022-09-21T17:04:26;4.38;;;1.92;;
19482;SDS011;9882;51.166;6.992;2022-09-21T17:06:57;3.78;;;1.42;;
19482;SDS011;9882;51.166;6.992;2022-09-21T17:09:27;2.67;;;1.75;;
19482;SDS011;9882;51.166;6.992;2022-09-21T17:11:59;3.40;;;1.58;;
19482;SDS011;9882;51.166;6.992;2022-09-21T17:14:29;1.75;;;1.63;;
19482;SDS011;9882;51.166;6.992;2022-09-21T17:17:01;3.10;;;1.70;;
19482;SDS011;9882;51.166;6.992;2022-09-21T17:19:35;4.30;;;1.70;;
19482;SDS011;9882;51.166;6.992;2022-09-21T17:22:08;2.35;;;1.45;;
19482;SDS011;9882;51.166;6.992;2022-09-21T17:24:43;1.55;;;1.45;;
19482;SDS011;9882;51.166;6.992;2022-09-21T17:27:16;1.65;;;1.55;;
19482;SDS011;9882;51.166;6.992;2022-09-21T17:29:45;2.85;;;1.73;;
19482;SDS011;9882;51.166;6.992;2022-09-21T17:32:15;2.80;;;1.92;;
19482;SDS011;9882;51.166;6.992;2022-09-21T17:34:47;2.17;;;1.90;;
19482;SDS011;9882;51.166;6.992;2022-09-21T17:37:21;7.03;;;1.80;;
19482;SDS011;9882;51.166;6.992;2022-09-21T17:39:51;2.58;;;1.92;;
19482;SDS011;9882;51.166;6.992;2022-09-21T17:42:21;4.65;;;1.85;;
19482;SDS011;9882;51.166;6.992;2022-09-21T17:45:00;2.03;;;1.73;;
19482;SDS011;9882;51.166;6.992;2022-09-21T17:47:38;2.72;;;1.70;;
19482;SDS011;9882;51.166;6.992;2022-09-21T17:50:15;4.65;;;2.22;;
19482;SDS011;9882;51.166;6.992;2022-09-21T17:52:48;2.35;;;2.15;;
19482;SDS011;9882;51.166;6.992;2022-09-21T17:55:35;3.83;;;2.05;;
19482;SDS011;9882;51.166;6.992;2022-09-21T17:58:09;2.83;;;2.13;;
19482;SDS011;9882;51.166;6.992;2022-09-21T18:00:51;8.07;;;2.80;;
19482;SDS011;9882;51.166;6.992;2022-09-21T18:03:27;5.15;;;3.15;;
19482;SDS011;9882;51.166;6.992;2022-09-21T18:05:58;9.55;;;3.20;;
19482;SDS011;9882;51.166;6.992;2022-09-21T18:08:28;14.25;;;4.30;;
19482;SDS011;9882;51.166;6.992;2022-09-21T18:11:01;11.90;;;4.07;;
19482;SDS011;9882;51.166;6.992;2022-09-21T18:13:38;11.75;;;4.45;;
19482;SDS011;9882;51.166;6.992;2022-09-21T18:16:21;10.05;;;4.03;;
19482;SDS011;9882;51.166;6.992;2022-09-21T18:19:00;8.45;;;3.67;;
19482;SDS011;9882;51.166;6.992;2022-09-21T18:21:42;9.13;;;3.65;;
19482;SDS011;9882;51.166;6.992;2022-09-21T18:24:18;17.60;;;5.28;;
19482;SDS011;9882;51.166;6.992;2022-09-21T18:26:49;12.07;;;4.88;;
19482;SDS011;9882;51.166;6.992;2022-09-21T18:29:25;13.20;;;5.20;;
19482;SDS011;9882;51.166;6.992;2022-09-21T18:32:15;11.93;;;5.05;;
19482;SDS011;9882;51.166;6.992;2022-09-21T18:35:10;12.20;;;4.75;;
19482;SDS011;9882;51.166;6.992;2022-09-21T18:37:50;14.40;;;5.20;;
19482;SDS011;9882;51.166;6.992;2022-09-21T18:40:41;14.40;;;4.82;;
19482;SDS011;9882;51.166;6.992;2022-09-21T18:43:25;13.07;;;5.13;;
19482;SDS011;9882;51.166;6.992;2022-09-21T18:46:00;10.43;;;4.78;;
19482;SDS011;9882;51.166;6.992;2022-09-21T18:48:36;12.48;;;5.13;;
19482;SDS011;9882;51.166;6.992;2022-09-21T18:51:20;10.18;;;4.63;;
19482;SDS011;9882;51.166;6.992;2022-09-21T18:53:54;14.30;;;4.72;;
19482;SDS011;9882;51.166;6.992;2022-09-21T18:56:24;10.75;;;4.35;;
19482;SDS011;9882;51.166;6.992;2022-09-21T18:58:55;8.48;;;4.38;;
19482;SDS011;9882;51.166;6.992;2022-09-21T19:01:24;9.73;;;4.25;;
19482;SDS011;9882;51.166;6.992;2022-09-21T19:03:55;10.02;;;4.53;;
19482;SDS011;9882;51.166;6.992;2022-09-21T19:06:29;14.85;;;4.57;;
19482;SDS011;9882;51.166;6.992;2022-09-21T19:09:09;15.55;;;5.25;;
19482;SDS011;9882;51.166;6.992;2022-09-21T19:11:47;12.20;;;4.85;;
19482;SDS011;9882;51.166;6.992;2022-09-21T19:14:23;12.98;;;4.68;;
19482;SDS011;9882;51.166;6.992;2022-09-21T19:17:05;8.68;;;4.40;;
19482;SDS011;9882;51.166;6.992;2022-09-21T19:19:43;14.07;;;5.53;;
19482;SDS011;9882;51.166;6.992;2022-09-21T19:22:20;14.02;;;5.25;;
19482;SDS011;9882;51.166;6.992;2022-09-21T19:24:57;18.88;;;6.10;;
19482;SDS011;9882;51.166;6.992;2022-09-21T19:27:33;14.85;;;5.93;;
19482;SDS011;9882;51.166;6.992;2022-09-21T19:30:06;16.10;;;6.25;;
19482;SDS011;9882;51.166;6.992;2022-09-21T19:32:39;13.27;;;5.78;;
19482;SDS011;9882;51.166;6.992;2022-09-21T19:35:12;18.15;;;6.35;;
19482;SDS011;9882;51.166;6.992;2022-09-21T19:37:44;16.73;;;6.95;;
19482;SDS011;9882;51.166;6.992;2022-09-21T19:40:15;16.85;;;6.47;;
19482;SDS011;9882;51.166;6.992;2022-09-21T19:42:55;20.40;;;7.72;;
19482;SDS011;9882;51.166;6.992;2022-09-21T19:45:34;23.23;;;7.95;;
19482;SDS011;9882;51.166;6.992;2022-09-21T19:48:12;21.65;;;7.78;;
19482;SDS011;9882;51.166;6.992;2022-09-21T19:50:44;22.00;;;7.50;;
19482;SDS011;9882;51.166;6.992;2022-09-21T19:53:20;19.85;;;6.13;;
19482;SDS011;9882;51.166;6.992;2022-09-21T19:56:09;20.70;;;7.00;;
19482;SDS011;9882;51.166;6.992;2022-09-21T19:58:58;22.58;;;6.68;;
19482;SDS011;9882;51.166;6.992;2022-09-21T20:01:45;15.65;;;6.47;;
19482;SDS011;9882;51.166;6.992;2022-09-21T20:04:23;16.75;;;6.65;;
19482;SDS011;9882;51.166;6.992;2022-09-21T20:06:55;16.67;;;6.53;;
19482;SDS011;9882;51.166;6.992;2022-09-21T20:09:31;17.52;;;6.38;;
19482;SDS011;9882;51.166;6.992;2022-09-21T20:12:08;19.38;;;6.93;;
19482;SDS011;9882;51.166;6.992;2022-09-21T20:14:45;19.33;;;7.32;;